LGRX/GPA METAR and TAF weather

Enter ICAO airport designator
Station Type Date Time Source
LGRX METAR 2020/01/20 21:50 UTC NOAA

LGRX 202150Z 06012KT 9999 FEW030 10/03 Q1037


Station Type Date Time Source
LGRX Decoded METAR 2020/01/20 21:50 UTC NOAA

Araxos Airport , Greece (LGRX) 38-09N 021-25E 12M
Jan 20, 2020 - 04:50 PM EST / 2020.01.20 2150 UTC
Wind: from the ENE (060 degrees) at 14 MPH (12 KT):0
Visibility: greater than 7 mile(s):0
Sky conditions: mostly clear
Temperature: 50 F (10 C)
Dew Point: 37 F (3 C)
Relative Humidity: 61%
Pressure (altimeter): 30.62 in. Hg (1037 hPa)
ob: LGRX 202150Z 06012KT 9999 FEW030 10/03 Q1037
cycle: 22

Station Type Date Time Source
LGRX TAF 2019/11/28 15:39 UTC NOAA

TAF TAF LGRX 281400Z 2815/2903 22012KT 9999 SCT020 BKN080 PROB40
TEMPO 2815/2903 6000 RA PROB30
TEMPO 2822/2903 3000 TSRA FEW018CB SCT020 BKN080

Example: see airport list